Martinez, CA (94553)

11:39 AM PDT on August 31, 2015 (GMT -0700)
APRSWXNET | | Change Station
CLOSE
Current Station
Personal Weather Station
Location: Martinez, CA
Elevation: 738 ft
Nearby Weather Stations

Elev 738 ft 37.98 °N, 122.14 °W | Updated 24 minutes ago

Clear
Clear
81 °F
Feels Like 81 °F
N
2
Wind Variable Wind from ESE
Gusts 5.0 mph

Today
High -- | Low -- °F
--% Chance of Precip.
Yesterday
High -- | Low -- °F
Precip. -- in
6:37 AM 7:39 PM
Waning Gibbous, 94% visible
Pressure 29.89 in
Visibility 10.0 miles
Clouds Clear
Heat Index 81 °F
Dew Point 54 °F
Humidity 40%
Rainfall in
Snow Depth Not available.
UV 7 out of 12
Pollen 6.60 out of 12
Air Quality Not available.
Flu Activity Not available.
METAR KCCR 311753Z 23004KT 10SM CLR 26/12 A2992 RMK AO2 SLP120 T02610117 10261 20178 58002
Pressure 29.89 in
Visibility 10.0 miles
Clouds Clear
Heat Index 81 °F
Dew Point 54 °F
Humidity 40%
Rainfall in
Snow Depth Not available.
UV 7 out of 12
Pollen 6.60 out of 12
Air Quality Not available.
Flu Activity Not available.
METAR KCCR 311753Z 23004KT 10SM CLR 26/12 A2992 RMK AO2 SLP120 T02610117 10261 20178 58002

10-Day Weather Forecast

×

Almanac

Astronomy

Aug. 31, 2015 Rise Set
Actual Time
Civil Twilight
Nautical Twilight
Astronomical Twilight
Moon
Length of Visible Light
Length of Day
Tomorrow will be .
, % of the Moon is Illuminated

Today's Extremes

State Highs State Lows

Community

WunderPhotos

Upload Photos

1,851,334 photos uploaded!

WunderBlogs® & News

Nearby

Air Quality

  Air Quality AQ Index Pollutant
Not available.

Snow Depth

Station Depth Elevation

Earthquake Activity

City Distance Mag. Time & Date
Minimum magnitude displayed is 2.5.

Coastal Water Temperatures

Place Temperature

Stations

Nearby Weather Stations

Station Location Temp. Windchill Dew Point Humidity Wind Precip. Elev Updated Type